Time;durP1;ratioP1;P1;durP2;ratioP2;P2;SDS_P1;SDS_P2;PMS_P1;PMS_P2;Temp;Humidity;BMP_temperature;BMP_pressure;BME280_temperature;BME280_humidity;BME280_pressure;Samples;Min_cycle;Max_cycle;Signal;HPM_P1;HPM_P2
2024/02/22 00:02:19;;;;;;;5.53;2.55;;;9.10;99.90;;;;;;5034072;28;20028;-88
2024/02/22 00:04:44;;;;;;;4.07;2.58;;;9.00;99.90;;;;;;5034027;28;20013;-88
2024/02/22 00:07:14;;;;;;;4.05;2.78;;;9.00;99.90;;;;;;5035068;28;20030;-89
2024/02/22 00:09:40;;;;;;;5.18;2.63;;;9.00;99.90;;;;;;5035981;28;20057;-87
2024/02/22 00:12:06;;;;;;;6.03;3.80;;;9.00;99.90;;;;;;5036683;28;20531;-89
2024/02/22 00:14:34;;;;;;;5.63;3.30;;;9.00;99.90;;;;;;5026886;28;20081;-89
2024/02/22 00:17:02;;;;;;;6.93;4.50;;;8.90;99.90;;;;;;5034469;28;20165;-88
2024/02/22 00:19:28;;;;;;;4.80;2.53;;;8.90;99.90;;;;;;5034748;28;20091;-89
2024/02/22 00:21:54;;;;;;;6.25;4.35;;;8.90;99.90;;;;;;5035317;28;20044;-89
2024/02/22 00:24:19;;;;;;;5.30;3.70;;;8.90;99.90;;;;;;5036712;28;20013;-87
2024/02/22 00:26:45;;;;;;;6.07;3.83;;;8.90;99.90;;;;;;5032858;28;20599;-89
2024/02/22 00:29:11;;;;;;;6.45;4.15;;;8.80;99.90;;;;;;5030855;28;20022;-89
2024/02/22 00:31:37;;;;;;;6.78;2.65;;;8.80;99.90;;;;;;5033884;28;20280;-89
2024/02/22 00:34:03;;;;;;;4.80;2.58;;;8.80;99.90;;;;;;5034595;28;20026;-88
2024/02/22 00:36:29;;;;;;;9.02;2.90;;;8.80;99.90;;;;;;5024279;28;20045;-89
2024/02/22 00:38:54;;;;;;;6.35;4.00;;;8.70;99.90;;;;;;5033813;28;20550;-87
2024/02/22 00:41:20;;;;;;;7.72;3.22;;;8.70;99.90;;;;;;5035061;28;20496;-88
2024/02/22 00:43:45;;;;;;;4.95;3.08;;;8.70;99.90;;;;;;5033751;28;20033;-88
2024/02/22 00:46:11;;;;;;;5.45;3.85;;;8.70;99.90;;;;;;5029410;28;20014;-88
2024/02/22 00:48:37;;;;;;;5.47;2.80;;;8.70;99.90;;;;;;5032777;28;20500;-89
2024/02/22 00:51:02;;;;;;;5.35;3.05;;;8.70;99.90;;;;;;5035004;28;20029;-88
2024/02/22 00:53:28;;;;;;;6.03;3.47;;;8.70;99.90;;;;;;5035349;28;20024;-88
2024/02/22 00:55:54;;;;;;;4.28;3.38;;;8.70;99.90;;;;;;5038990;28;20040;-88
2024/02/22 00:58:20;;;;;;;4.82;3.35;;;8.70;99.90;;;;;;5038063;28;20033;-88
2024/02/22 01:00:45;;;;;;;5.10;3.35;;;8.70;99.90;;;;;;5039084;28;20321;-89
2024/02/22 01:03:11;;;;;;;3.85;2.55;;;8.70;99.90;;;;;;5037243;28;20028;-89
2024/02/22 01:05:36;;;;;;;7.47;3.40;;;8.70;99.90;;;;;;5053863;28;20033;-90
2024/02/22 01:08:03;;;;;;;4.80;3.05;;;8.70;99.90;;;;;;5040949;28;20022;-89
2024/02/22 01:10:29;;;;;;;5.88;3.42;;;8.70;99.90;;;;;;5038139;28;20029;-90
2024/02/22 01:12:55;;;;;;;5.20;3.85;;;8.70;99.90;;;;;;5038496;28;20022;-88
2024/02/22 01:15:21;;;;;;;3.92;2.78;;;8.70;99.90;;;;;;5037548;28;20029;-90
2024/02/22 01:17:47;;;;;;;6.07;2.95;;;8.70;99.90;;;;;;5036941;28;20484;-88
2024/02/22 01:20:12;;;;;;;4.43;3.38;;;8.70;99.90;;;;;;5036754;28;20021;-89
2024/02/22 01:22:39;;;;;;;6.32;3.58;;;8.60;99.90;;;;;;5036870;28;20021;-90
2024/02/22 01:25:05;;;;;;;5.50;3.40;;;8.70;99.90;;;;;;5037561;28;20030;-89
2024/02/22 01:27:31;;;;;;;5.75;3.05;;;8.70;99.90;;;;;;5035866;28;20102;-88
2024/02/22 01:29:57;;;;;;;5.32;3.50;;;8.70;99.90;;;;;;5037829;28;20029;-89
2024/02/22 01:32:22;;;;;;;4.80;3.05;;;8.70;99.90;;;;;;5055453;28;20040;-90
2024/02/22 01:34:48;;;;;;;4.97;3.13;;;8.70;99.90;;;;;;5054993;28;20049;-91
2024/02/22 01:37:14;;;;;;;4.10;2.92;;;8.70;99.90;;;;;;5050821;28;20029;-89
2024/02/22 01:39:40;;;;;;;5.35;2.63;;;8.60;99.90;;;;;;5053999;28;20431;-89
2024/02/22 01:42:06;;;;;;;6.70;2.78;;;8.60;99.90;;;;;;5038940;28;20090;-88
2024/02/22 01:44:31;;;;;;;9.18;3.28;;;8.60;99.90;;;;;;5038156;28;20484;-89
2024/02/22 01:46:58;;;;;;;3.72;2.53;;;8.60;99.90;;;;;;5039113;28;20404;-89
2024/02/22 01:49:24;;;;;;;7.70;3.70;;;8.70;99.90;;;;;;5037779;28;20025;-90
2024/02/22 01:51:57;;;;;;;5.10;2.67;;;8.70;99.90;;;;;;5038028;28;20037;-89
2024/02/22 01:54:23;;;;;;;5.38;2.88;;;8.70;99.90;;;;;;5036395;28;20025;-88
2024/02/22 01:56:49;;;;;;;4.38;2.13;;;8.70;99.90;;;;;;5038036;28;20077;-90
2024/02/22 01:59:15;;;;;;;5.55;2.80;;;8.70;99.90;;;;;;5038072;28;20041;-90
2024/02/22 02:01:42;;;;;;;3.85;2.38;;;8.70;99.90;;;;;;5037104;28;20557;-90
2024/02/22 02:04:11;;;;;;;5.47;2.70;;;8.70;99.90;;;;;;5037585;28;20044;-88
2024/02/22 02:06:36;;;;;;;6.55;3.15;;;8.70;99.90;;;;;;5036625;28;20399;-90
2024/02/22 02:09:02;;;;;;;3.78;2.40;;;8.70;99.90;;;;;;5037737;28;20081;-89
2024/02/22 02:11:28;;;;;;;3.42;2.38;;;8.70;99.90;;;;;;5035695;28;20067;-89
2024/02/22 02:13:54;;;;;;;4.07;2.97;;;8.70;99.90;;;;;;5051969;28;20033;-90
2024/02/22 02:16:20;;;;;;;4.30;2.63;;;8.80;99.90;;;;;;5038142;28;20022;-89
2024/02/22 02:18:46;;;;;;;4.35;1.95;;;8.80;99.90;;;;;;5038602;28;20035;-88
2024/02/22 02:21:36;;;;;;;4.38;1.92;;;8.80;99.90;;;;;;5037371;28;20603;-89
2024/02/22 02:24:16;;;;;;;3.35;1.92;;;8.90;99.90;;;;;;5030999;28;20045;-91
2024/02/22 02:26:42;;;;;;;;;;;8.90;99.90;;;;;;5053261;28;20451;-89
2024/02/22 02:29:08;;;;;;;3.22;1.83;;;8.90;99.90;;;;;;5036037;28;19913;-90
2024/02/22 02:31:33;;;;;;;7.07;1.95;;;8.90;99.90;;;;;;5036006;28;20025;-89
2024/02/22 02:33:59;;;;;;;3.58;1.73;;;9.00;99.90;;;;;;5037195;28;20052;-89
2024/02/22 02:36:24;;;;;;;2.35;1.50;;;9.00;99.90;;;;;;5037164;28;20013;-90
2024/02/22 02:38:50;;;;;;;3.22;1.88;;;9.00;99.90;;;;;;5036111;28;20022;-89
2024/02/22 02:41:16;;;;;;;4.10;1.77;;;9.00;99.90;;;;;;5036779;28;20041;-88
2024/02/22 02:43:41;;;;;;;2.55;2.33;;;8.90;99.90;;;;;;5036181;28;20013;-88
2024/02/22 02:46:07;;;;;;;3.88;2.35;;;9.00;99.90;;;;;;5037724;28;20024;-87
2024/02/22 02:48:32;;;;;;;4.97;2.53;;;9.00;99.90;;;;;;5038200;28;20087;-88
2024/02/22 02:50:59;;;;;;;2.63;2.42;;;9.00;99.90;;;;;;5038851;28;20090;-89
2024/02/22 02:53:24;;;;;;;2.75;1.50;;;8.90;99.90;;;;;;5036500;28;20053;-89
2024/02/22 02:55:50;;;;;;;2.53;1.52;;;9.00;99.90;;;;;;5035356;28;20123;-90
2024/02/22 02:58:15;;;;;;;3.40;1.98;;;9.00;99.90;;;;;;5033074;28;20036;-89
2024/02/22 03:00:41;;;;;;;2.95;1.80;;;9.00;99.90;;;;;;5037659;28;20041;-88
2024/02/22 03:03:07;;;;;;;2.33;1.75;;;8.90;99.90;;;;;;5035670;28;20026;-90
2024/02/22 03:05:32;;;;;;;3.30;1.83;;;9.00;99.90;;;;;;5036617;28;20036;-89
2024/02/22 03:07:58;;;;;;;3.15;1.48;;;9.00;99.90;;;;;;5036287;28;20435;-90
2024/02/22 03:10:24;;;;;;;4.22;1.50;;;8.90;99.90;;;;;;5036045;28;20029;-90
2024/02/22 03:12:51;;;;;;;1.55;1.30;;;8.90;99.90;;;;;;5036674;28;20030;-88
2024/02/22 03:15:17;;;;;;;2.05;1.08;;;9.00;99.90;;;;;;5036380;28;20096;-88
2024/02/22 03:17:42;;;;;;;3.13;1.88;;;9.00;99.90;;;;;;5037394;28;20056;-89
2024/02/22 03:20:11;;;;;;;2.85;1.48;;;9.00;99.90;;;;;;5035550;28;20672;-89
2024/02/22 03:22:37;;;;;;;2.47;1.55;;;8.90;99.90;;;;;;5036224;28;20089;-88
2024/02/22 03:25:05;;;;;;;2.13;1.50;;;8.90;99.90;;;;;;5036411;28;20024;-88
2024/02/22 03:27:32;;;;;;;1.95;1.45;;;8.90;99.90;;;;;;5034984;28;20049;-89
2024/02/22 03:29:58;;;;;;;3.33;2.30;;;9.00;99.90;;;;;;5035684;28;20025;-92
2024/02/22 03:32:23;;;;;;;2.33;2.17;;;8.90;99.90;;;;;;5036536;28;20121;-89
2024/02/22 03:34:49;;;;;;;1.88;1.60;;;8.90;99.90;;;;;;5035585;28;20045;-90
2024/02/22 03:37:21;;;;;;;4.30;4.00;;;9.00;99.90;;;;;;5010560;28;20585;-89
2024/02/22 03:39:49;;;;;;;2.17;1.73;;;9.00;99.90;;;;;;5003684;28;20578;-91
2024/02/22 03:42:18;;;;;;;3.58;2.50;;;9.00;99.90;;;;;;5008328;28;20026;-88
2024/02/22 03:44:44;;;;;;;2.45;1.98;;;8.90;99.90;;;;;;5000876;28;20030;-89
2024/02/22 03:47:11;;;;;;;2.33;2.10;;;9.00;99.90;;;;;;4995378;28;20026;-88
2024/02/22 03:49:37;;;;;;;3.63;1.50;;;9.00;99.90;;;;;;5003228;28;20034;-90
2024/02/22 03:52:04;;;;;;;2.92;1.63;;;9.00;99.90;;;;;;5003324;28;20019;-89
2024/02/22 03:54:31;;;;;;;3.28;1.50;;;9.10;99.90;;;;;;4993159;28;20035;-90
2024/02/22 03:56:57;;;;;;;2.28;1.80;;;9.00;99.90;;;;;;5004889;28;20026;-88
2024/02/22 03:59:23;;;;;;;2.42;1.52;;;9.10;99.90;;;;;;4998067;28;20528;-89
2024/02/22 04:01:49;;;;;;;2.38;1.75;;;9.00;99.90;;;;;;5000325;28;20026;-89
2024/02/22 04:04:15;;;;;;;3.13;2.22;;;9.10;99.90;;;;;;5007225;28;20060;-89
2024/02/22 04:06:41;;;;;;;4.00;1.98;;;9.00;99.90;;;;;;5015710;28;20022;-91
2024/02/22 04:09:07;;;;;;;1.73;1.20;;;9.00;99.90;;;;;;5034301;28;20033;-89
2024/02/22 04:11:33;;;;;;;3.97;2.08;;;9.10;99.90;;;;;;5003134;28;20400;-89
2024/02/22 04:13:58;;;;;;;2.47;1.20;;;9.10;99.90;;;;;;4998224;28;20030;-89
2024/02/22 04:16:24;;;;;;;4.38;2.03;;;9.00;99.90;;;;;;4995557;28;20023;-89
2024/02/22 04:18:50;;;;;;;2.67;2.10;;;9.10;99.90;;;;;;5003065;28;20058;-90
2024/02/22 04:21:15;;;;;;;2.50;1.95;;;9.10;99.90;;;;;;5002033;28;20047;-87
2024/02/22 04:23:44;;;;;;;2.47;1.75;;;9.10;99.90;;;;;;4999600;28;20023;-89
2024/02/22 04:26:10;;;;;;;2.13;1.27;;;9.10;99.90;;;;;;4992310;28;20038;-89
2024/02/22 04:28:36;;;;;;;3.78;1.42;;;9.10;99.90;;;;;;5003371;28;20596;-89
2024/02/22 04:31:04;;;;;;;2.25;1.83;;;9.10;99.90;;;;;;5003300;28;20022;-88
2024/02/22 04:33:31;;;;;;;2.10;1.63;;;9.10;99.90;;;;;;5003683;28;20073;-88
2024/02/22 04:35:57;;;;;;;2.50;2.10;;;9.10;99.90;;;;;;5004142;28;20064;-88
2024/02/22 04:38:22;;;;;;;1.98;1.30;;;9.00;99.90;;;;;;5008314;28;20026;-90
2024/02/22 04:40:48;;;;;;;3.78;1.23;;;9.00;99.90;;;;;;5012442;28;20021;-89
2024/02/22 04:43:14;;;;;;;2.17;1.08;;;9.10;99.90;;;;;;5019573;28;20067;-90
2024/02/22 04:45:40;;;;;;;2.33;1.27;;;9.10;99.90;;;;;;4998803;28;20026;-88
2024/02/22 04:48:06;;;;;;;4.43;2.08;;;9.10;99.90;;;;;;4999717;28;20034;-90
2024/02/22 04:50:33;;;;;;;3.25;1.40;;;9.00;99.90;;;;;;4995468;28;20072;-91
2024/02/22 04:53:00;;;;;;;4.28;2.83;;;9.10;99.90;;;;;;4992084;28;20034;-89
2024/02/22 04:55:26;;;;;;;3.50;2.13;;;9.00;99.90;;;;;;4996145;28;20060;-91
2024/02/22 04:57:52;;;;;;;1.77;1.52;;;9.00;99.90;;;;;;5014257;28;20028;-89
2024/02/22 05:00:18;;;;;;;2.45;1.52;;;9.00;99.90;;;;;;4993874;28;20029;-90
2024/02/22 05:02:44;;;;;;;2.70;2.03;;;9.10;99.90;;;;;;5001184;28;20015;-88
2024/02/22 05:05:10;;;;;;;3.25;2.95;;;9.20;99.90;;;;;;4998661;28;20025;-89
2024/02/22 05:07:36;;;;;;;3.88;1.73;;;9.10;99.90;;;;;;4991822;28;20034;-88
2024/02/22 05:10:03;;;;;;;5.38;3.65;;;9.10;99.90;;;;;;4993000;28;20393;-88
2024/02/22 05:12:28;;;;;;;2.38;1.48;;;9.10;99.90;;;;;;4992828;28;20019;-87
2024/02/22 05:14:55;;;;;;;3.15;1.60;;;9.10;99.90;;;;;;4989288;28;20059;-91
2024/02/22 05:17:21;;;;;;;2.72;1.55;;;9.20;99.90;;;;;;4993108;28;20030;-90
2024/02/22 05:19:47;;;;;;;3.28;2.88;;;9.20;99.90;;;;;;4990573;28;20034;-89
2024/02/22 05:22:13;;;;;;;4.93;1.63;;;9.20;99.90;;;;;;4987989;28;20025;-88
2024/02/22 05:24:40;;;;;;;2.65;1.90;;;9.20;99.90;;;;;;4985786;28;20046;-90
2024/02/22 05:27:06;;;;;;;2.58;1.58;;;9.20;99.90;;;;;;4993064;28;20033;-87
2024/02/22 05:29:32;;;;;;;2.72;1.73;;;9.20;99.90;;;;;;4994251;28;20031;-88
2024/02/22 05:31:58;;;;;;;2.67;1.88;;;9.20;99.90;;;;;;4989717;28;20544;-89
2024/02/22 05:34:27;;;;;;;3.13;2.47;;;9.30;99.90;;;;;;4994764;28;20219;-90
2024/02/22 05:36:54;;;;;;;2.58;2.15;;;9.30;99.90;;;;;;4993714;28;20027;-92
2024/02/22 05:39:19;;;;;;;2.22;1.77;;;9.30;99.90;;;;;;5007288;28;20030;-91
2024/02/22 05:41:45;;;;;;;2.30;2.00;;;9.30;99.90;;;;;;5020246;28;20506;-91
2024/02/22 05:44:12;;;;;;;2.08;1.77;;;9.30;99.90;;;;;;4983161;28;20110;-89
2024/02/22 05:46:37;;;;;;;2.75;1.38;;;9.30;99.90;;;;;;4993400;28;20026;-91
2024/02/22 05:49:03;;;;;;;2.05;1.52;;;9.30;99.90;;;;;;4986591;28;20062;-90
2024/02/22 05:51:29;;;;;;;2.67;1.70;;;9.30;99.90;;;;;;4993649;28;20377;-91
2024/02/22 05:53:55;;;;;;;2.05;1.83;;;9.30;99.90;;;;;;5030102;28;20049;-89
2024/02/22 05:56:21;;;;;;;2.63;1.67;;;9.30;99.90;;;;;;5024783;28;20041;-90
2024/02/22 05:58:46;;;;;;;2.08;1.67;;;9.30;99.90;;;;;;4999956;28;20060;-91
2024/02/22 06:01:15;;;;;;;2.88;1.50;;;9.30;99.90;;;;;;4981732;28;20109;-90
2024/02/22 06:03:41;;;;;;;2.22;1.92;;;9.30;99.90;;;;;;4981207;28;20015;-91
2024/02/22 06:06:07;;;;;;;2.78;1.35;;;9.40;99.90;;;;;;4979175;28;20102;-90
2024/02/22 06:08:34;;;;;;;2.80;1.42;;;9.40;99.90;;;;;;5025870;28;20605;-91
2024/02/22 06:11:00;;;;;;;1.90;1.60;;;9.40;99.90;;;;;;4993423;28;20318;-91
2024/02/22 06:13:25;;;;;;;2.72;2.53;;;9.40;99.90;;;;;;4999504;28;20255;-91
2024/02/22 06:15:51;;;;;;;2.55;1.58;;;9.50;99.90;;;;;;4993207;28;20041;-89
2024/02/22 06:18:16;;;;;;;2.33;2.13;;;9.40;99.90;;;;;;4992514;28;20026;-87
2024/02/22 06:20:42;;;;;;;2.30;1.88;;;9.50;99.90;;;;;;5009244;28;20135;-88
2024/02/22 06:23:08;;;;;;;2.00;1.25;;;9.60;99.90;;;;;;5004949;28;20026;-90
2024/02/22 06:25:35;;;;;;;1.85;1.25;;;9.60;99.90;;;;;;5024924;28;20042;-90
2024/02/22 06:28:01;;;;;;;2.00;1.45;;;9.60;99.90;;;;;;5006442;28;20459;-88
2024/02/22 06:30:27;;;;;;;1.90;1.45;;;9.50;99.90;;;;;;5015165;28;20022;-91
2024/02/22 06:32:52;;;;;;;3.25;1.17;;;9.60;99.90;;;;;;4997772;28;20050;-90
2024/02/22 06:35:18;;;;;;;1.73;1.48;;;9.60;99.90;;;;;;5026074;28;20103;-91
2024/02/22 06:37:47;;;;;;;2.10;2.00;;;9.60;99.90;;;;;;5023426;28;20032;-90
2024/02/22 06:40:14;;;;;;;1.98;1.02;;;9.60;99.90;;;;;;4999148;28;20020;-90
2024/02/22 06:42:40;;;;;;;1.83;1.40;;;9.60;99.90;;;;;;4994514;28;20033;-89
2024/02/22 06:45:08;;;;;;;1.65;1.40;;;9.70;99.90;;;;;;4988636;28;20018;-92
2024/02/22 06:47:34;;;;;;;2.65;1.45;;;9.70;99.90;;;;;;5011229;28;20083;-90
2024/02/22 06:49:59;;;;;;;1.67;1.58;;;9.70;99.90;;;;;;5006744;28;20024;-90
2024/02/22 06:52:25;;;;;;;1.52;1.10;;;9.80;99.90;;;;;;5019181;28;20075;-89
2024/02/22 06:54:52;;;;;;;1.27;1.17;;;9.70;99.90;;;;;;4993866;28;20030;-90
2024/02/22 06:57:18;;;;;;;2.47;1.30;;;9.80;99.90;;;;;;4988390;28;20026;-90
2024/02/22 06:59:44;;;;;;;1.95;1.08;;;9.80;99.90;;;;;;4991212;28;20022;-92
2024/02/22 07:02:15;;;;;;;1.50;1.40;;;9.80;99.90;;;;;;4996906;28;20560;-92
2024/02/22 07:04:44;;;;;;;1.40;1.30;;;9.80;99.90;;;;;;5079651;28;20031;-92
2024/02/22 07:07:10;;;;;;;1.73;1.63;;;9.80;99.90;;;;;;5022983;28;20022;-91
2024/02/22 07:09:35;;;;;;;2.17;1.23;;;9.90;99.90;;;;;;4966155;28;20035;-93
2024/02/22 07:12:01;;;;;;;1.90;1.80;;;9.90;99.90;;;;;;4962321;28;20038;-90
2024/02/22 07:14:28;;;;;;;1.58;1.48;;;9.90;99.90;;;;;;4970670;28;20036;-91
2024/02/22 07:16:53;;;;;;;0.93;0.80;;;9.90;99.90;;;;;;4977780;28;20499;-89
2024/02/22 07:19:19;;;;;;;2.25;1.02;;;10.00;99.90;;;;;;5001896;28;20043;-90
2024/02/22 07:21:45;;;;;;;1.40;1.25;;;10.00;99.90;;;;;;4951052;28;20512;-91
2024/02/22 07:24:11;;;;;;;1.70;1.33;;;9.90;99.90;;;;;;4995581;28;20057;-92
2024/02/22 07:26:41;;;;;;;1.25;1.15;;;9.90;99.90;;;;;;4966470;28;20034;-92
2024/02/22 07:29:06;;;;;;;1.38;0.95;;;9.90;99.90;;;;;;5005764;28;20027;-92
2024/02/22 07:31:32;;;;;;;1.92;0.88;;;9.90;99.90;;;;;;5024525;28;20015;-90
2024/02/22 07:33:57;;;;;;;1.52;1.42;;;9.90;99.90;;;;;;4976691;28;20097;-91
2024/02/22 07:36:24;;;;;;;1.65;1.55;;;9.90;99.90;;;;;;5006574;28;20035;-90
2024/02/22 07:38:50;;;;;;;1.40;1.13;;;10.00;99.90;;;;;;4983058;28;20032;-91
2024/02/22 07:41:16;;;;;;;1.38;0.80;;;10.00;99.90;;;;;;4974446;28;20031;-93
2024/02/22 07:43:51;;;;;;;1.65;1.50;;;10.00;99.90;;;;;;5001906;28;20070;-89
2024/02/22 07:46:17;;;;;;;1.30;1.20;;;10.00;99.90;;;;;;5014703;28;20043;-90
2024/02/22 07:48:43;;;;;;;1.38;1.25;;;10.10;99.90;;;;;;4959897;28;20025;-90
2024/02/22 07:51:09;;;;;;;1.58;0.98;;;10.10;99.90;;;;;;4949496;28;20039;-90
2024/02/22 07:53:36;;;;;;;1.65;1.33;;;10.00;99.90;;;;;;4977622;28;20032;-90
2024/02/22 07:56:07;;;;;;;1.27;1.25;;;10.10;99.90;;;;;;4942340;28;21003;-91
2024/02/22 07:58:51;;;;;;;1.02;0.70;;;10.10;99.90;;;;;;5019083;28;20405;-91
2024/02/22 08:01:17;;;;;;;3.90;1.65;;;10.10;99.90;;;;;;4988611;28;20110;-90
2024/02/22 08:03:43;;;;;;;1.83;1.73;;;10.10;99.90;;;;;;4964155;28;20488;-89
2024/02/22 08:06:10;;;;;;;0.90;0.90;;;10.20;99.90;;;;;;4948747;28;20050;-90
2024/02/22 08:08:36;;;;;;;1.70;0.98;;;10.10;99.90;;;;;;4982108;28;20037;-90
2024/02/22 08:11:03;;;;;;;2.80;1.63;;;10.20;99.90;;;;;;4980676;28;21259;-91
2024/02/22 08:13:28;;;;;;;1.48;1.17;;;10.10;99.90;;;;;;5013933;28;20033;-90
2024/02/22 08:16:03;;;;;;;2.08;1.15;;;10.10;99.90;;;;;;4981583;28;20030;-91
2024/02/22 08:18:29;;;;;;;1.85;1.23;;;10.20;99.90;;;;;;4973786;28;20028;-91
2024/02/22 08:20:54;;;;;;;1.83;1.70;;;10.10;99.90;;;;;;4975589;28;20432;-91
2024/02/22 08:23:21;;;;;;;1.60;0.90;;;10.10;99.90;;;;;;4955102;28;20050;-91
2024/02/22 08:25:50;;;;;;;1.23;1.13;;;10.20;99.90;;;;;;4970019;28;20052;-89
2024/02/22 08:28:16;;;;;;;1.17;0.85;;;10.20;99.90;;;;;;5018906;28;20593;-90
2024/02/22 08:30:41;;;;;;;1.48;1.35;;;10.20;99.90;;;;;;4972381;28;20048;-90
2024/02/22 08:33:07;;;;;;;1.20;1.10;;;10.20;99.90;;;;;;4975207;28;20036;-89
2024/02/22 08:35:33;;;;;;;1.65;0.98;;;10.30;99.90;;;;;;4959687;28;20089;-90
2024/02/22 08:37:58;;;;;;;2.33;2.20;;;10.30;99.90;;;;;;4973485;28;20874;-90
2024/02/22 08:40:24;;;;;;;0.65;0.65;;;10.40;99.90;;;;;;5010323;28;20086;-90
2024/02/22 08:42:50;;;;;;;1.13;1.02;;;10.40;99.90;;;;;;4986804;28;20438;-89
2024/02/22 08:45:17;;;;;;;1.88;1.00;;;10.30;99.90;;;;;;4990535;28;20039;-91
2024/02/22 08:47:43;;;;;;;1.92;1.83;;;10.30;99.90;;;;;;4960018;28;20043;-89
2024/02/22 08:50:12;;;;;;;0.90;0.77;;;10.30;99.90;;;;;;4959319;28;20027;-89
2024/02/22 08:52:50;;;;;;;1.35;1.10;;;10.30;99.90;;;;;;5010646;28;20164;-89
2024/02/22 08:55:17;;;;;;;2.10;1.13;;;10.40;99.90;;;;;;5029949;28;20043;-90
2024/02/22 08:57:42;;;;;;;1.40;1.05;;;10.40;99.90;;;;;;4995038;28;20019;-91
2024/02/22 09:00:12;;;;;;;1.20;1.20;;;10.40;99.90;;;;;;4990399;28;20035;-90
2024/02/22 09:02:38;;;;;;;1.00;0.63;;;10.40;99.90;;;;;;4954959;28;20038;-91
2024/02/22 09:05:05;;;;;;;1.98;1.88;;;10.50;99.90;;;;;;4984735;28;21707;-92
2024/02/22 09:07:31;;;;;;;1.30;0.82;;;10.50;99.90;;;;;;5017408;28;20036;-91
2024/02/22 09:09:57;;;;;;;1.10;1.02;;;10.50;99.90;;;;;;4973133;28;20118;-90
2024/02/22 09:12:22;;;;;;;1.13;1.08;;;10.50;99.90;;;;;;4968129;28;20088;-92
2024/02/22 09:14:48;;;;;;;1.38;1.38;;;10.60;99.90;;;;;;4960778;28;20121;-90
2024/02/22 09:17:14;;;;;;;0.95;0.95;;;10.60;99.90;;;;;;4973761;28;20080;-90
2024/02/22 09:19:42;;;;;;;1.27;1.17;;;10.70;99.90;;;;;;5021751;28;20089;-89
2024/02/22 09:22:12;;;;;;;1.23;1.23;;;10.70;99.90;;;;;;5028295;28;20045;-92
2024/02/22 09:24:47;;;;;;;0.90;0.68;;;10.70;99.90;;;;;;4981674;28;20036;-91
2024/02/22 09:27:13;;;;;;;1.23;1.13;;;10.70;99.90;;;;;;4957681;28;20037;-92
2024/02/22 09:29:40;;;;;;;1.27;1.20;;;10.70;99.90;;;;;;5001812;28;20083;-91
2024/02/22 09:32:06;;;;;;;1.85;1.65;;;10.70;99.90;;;;;;4992002;28;20660;-91
2024/02/22 09:34:49;;;;;;;1.23;0.95;;;10.70;99.90;;;;;;5019319;28;20035;-89
2024/02/22 09:37:15;;;;;;;1.45;1.35;;;10.70;99.90;;;;;;4988819;28;20034;-90
2024/02/22 09:39:41;;;;;;;1.02;0.90;;;10.70;99.90;;;;;;4940436;28;20023;-91
2024/02/22 09:42:07;;;;;;;1.02;0.88;;;10.70;99.90;;;;;;4956692;28;20094;-90
2024/02/22 09:44:33;;;;;;;1.13;1.02;;;10.70;99.90;;;;;;4988008;28;20040;-90
2024/02/22 09:46:58;;;;;;;1.73;0.95;;;10.70;99.90;;;;;;4969260;28;20158;-91
2024/02/22 09:49:24;;;;;;;2.45;0.90;;;10.80;99.90;;;;;;5019188;28;20044;-91
2024/02/22 09:51:51;;;;;;;1.70;0.65;;;10.80;99.90;;;;;;4972272;28;20028;-91
2024/02/22 09:54:18;;;;;;;2.00;1.10;;;10.80;99.90;;;;;;4996398;28;20068;-91
2024/02/22 09:56:45;;;;;;;1.15;1.02;;;10.90;99.90;;;;;;5005054;28;20088;-90
2024/02/22 09:59:12;;;;;;;0.93;0.90;;;10.80;99.90;;;;;;4994028;28;20466;-92
2024/02/22 10:02:06;;;;;;;0.80;0.80;;;10.90;99.90;;;;;;5000312;28;20268;-89
2024/02/22 10:04:32;;;;;;;1.00;0.85;;;10.90;99.90;;;;;;5018796;28;20481;-91
2024/02/22 10:07:01;;;;;;;0.90;0.82;;;11.10;99.90;;;;;;4967736;28;20109;-90
2024/02/22 10:09:28;;;;;;;1.27;1.23;;;11.10;99.90;;;;;;4980560;28;20718;-90
2024/02/22 10:11:53;;;;;;;1.25;0.70;;;11.20;99.90;;;;;;4972269;28;20106;-91
2024/02/22 10:14:19;;;;;;;1.23;1.23;;;11.20;99.90;;;;;;4947590;28;20122;-90
2024/02/22 10:16:51;;;;;;;0.70;0.70;;;11.20;99.90;;;;;;4987764;28;20029;-90
2024/02/22 10:19:16;;;;;;;1.23;1.08;;;11.20;99.90;;;;;;4988984;28;20043;-89
2024/02/22 10:21:44;;;;;;;0.95;0.68;;;11.20;99.90;;;;;;4979136;28;20013;-90
2024/02/22 10:24:10;;;;;;;1.30;1.20;;;11.20;99.90;;;;;;4987409;28;20026;-89
2024/02/22 10:26:35;;;;;;;1.67;1.58;;;11.20;99.90;;;;;;4969379;28;20730;-90
2024/02/22 10:29:09;;;;;;;2.00;1.90;;;11.20;99.90;;;;;;4989269;28;22507;-91
2024/02/22 10:31:50;;;;;;;0.98;0.98;;;11.20;99.90;;;;;;4991853;28;20034;-88
2024/02/22 10:34:15;;;;;;;0.85;0.85;;;11.10;99.90;;;;;;5028471;28;20028;-90
2024/02/22 10:36:45;;;;;;;1.20;1.10;;;11.10;99.90;;;;;;4946635;28;20031;-89
2024/02/22 10:39:11;;;;;;;2.05;0.80;;;11.10;99.90;;;;;;4944549;28;20313;-89
2024/02/22 10:41:37;;;;;;;0.93;0.57;;;11.10;99.90;;;;;;4958830;28;20580;-90
2024/02/22 10:44:04;;;;;;;0.82;0.60;;;11.20;99.90;;;;;;4973002;28;21413;-91
2024/02/22 10:46:51;;;;;;;;;;;;;;;;;;;;;
2024/02/22 10:49:18;;;;;;;1.75;0.93;;;11.20;99.90;;;;;;5000507;28;20047;-91
2024/02/22 10:51:46;;;;;;;2.28;0.98;;;11.20;99.90;;;;;;4945543;28;20053;-91
2024/02/22 10:54:12;;;;;;;1.63;1.33;;;11.20;99.90;;;;;;4957252;28;20038;-92
2024/02/22 10:56:42;;;;;;;1.13;1.13;;;11.20;99.90;;;;;;4955935;28;20036;-90
2024/02/22 10:59:13;;;;;;;1.70;1.60;;;11.20;99.90;;;;;;4964926;28;20561;-93
2024/02/22 11:01:55;;;;;;;0.85;0.82;;;11.10;99.90;;;;;;4996579;28;20053;-89
2024/02/22 11:04:21;;;;;;;1.15;0.70;;;11.10;99.90;;;;;;4991129;28;20031;-89
2024/02/22 11:06:48;;;;;;;1.38;1.23;;;11.00;99.90;;;;;;4961154;28;20029;-90
2024/02/22 11:09:25;;;;;;;1.42;1.20;;;11.00;99.90;;;;;;4969164;28;20026;-90
2024/02/22 11:11:51;;;;;;;1.77;1.23;;;11.00;99.90;;;;;;4945054;28;20027;-90
2024/02/22 11:14:31;;;;;;;1.50;1.10;;;11.00;99.90;;;;;;4968380;28;20029;-91
2024/02/22 11:16:59;;;;;;;1.88;1.17;;;11.00;99.90;;;;;;4959818;28;21031;-91
2024/02/22 11:19:26;;;;;;;1.10;0.95;;;11.00;99.90;;;;;;5001682;28;20034;-92
2024/02/22 11:21:52;;;;;;;1.38;1.02;;;11.00;99.90;;;;;;4987829;28;20546;-91
2024/02/22 11:24:25;;;;;;;1.63;1.25;;;11.00;99.90;;;;;;4986976;28;20039;-89
2024/02/22 11:26:55;;;;;;;1.63;1.40;;;11.10;99.90;;;;;;4961242;28;20380;-91
2024/02/22 11:29:32;;;;;;;0.93;0.93;;;11.20;99.90;;;;;;4975518;28;20065;-89
2024/02/22 11:32:03;;;;;;;2.10;1.50;;;11.40;99.90;;;;;;4946550;28;21702;-90
2024/02/22 11:34:30;;;;;;;1.42;1.02;;;11.60;99.90;;;;;;4991432;28;20035;-90
2024/02/22 11:37:14;;;;;;;1.52;1.27;;;11.60;99.90;;;;;;4966384;28;20550;-90
2024/02/22 11:39:39;;;;;;;1.33;1.23;;;11.60;99.90;;;;;;5001238;28;20078;-91
2024/02/22 11:42:11;;;;;;;0.90;0.77;;;11.60;99.90;;;;;;4958992;28;20111;-91
2024/02/22 11:44:37;;;;;;;1.27;1.17;;;11.50;99.90;;;;;;4946390;28;20064;-89
2024/02/22 11:47:02;;;;;;;1.83;1.23;;;11.50;99.90;;;;;;4981967;28;20060;-90
2024/02/22 11:49:29;;;;;;;1.27;1.20;;;11.60;99.90;;;;;;5021561;28;20028;-91
2024/02/22 11:51:54;;;;;;;1.25;1.15;;;11.70;99.90;;;;;;4974074;28;20041;-89
2024/02/22 11:54:22;;;;;;;1.77;1.67;;;11.70;99.90;;;;;;4937555;28;20397;-89
2024/02/22 11:56:47;;;;;;;1.15;0.98;;;11.90;99.90;;;;;;4962381;28;20077;-90
2024/02/22 11:59:13;;;;;;;1.33;1.23;;;11.90;99.90;;;;;;4968841;28;20036;-89
2024/02/22 12:02:04;;;;;;;0.85;0.75;;;12.00;99.90;;;;;;5000606;28;20035;-88
2024/02/22 12:04:32;;;;;;;1.27;1.17;;;12.00;99.90;;;;;;5011200;28;20088;-90
2024/02/22 12:07:02;;;;;;;2.45;1.23;;;12.00;99.90;;;;;;4930405;28;20073;-90
2024/02/22 12:09:29;;;;;;;2.30;1.30;;;11.90;99.90;;;;;;4928019;28;20027;-90
2024/02/22 12:11:56;;;;;;;2.03;1.27;;;11.90;99.90;;;;;;4950556;28;20042;-89
2024/02/22 12:14:21;;;;;;;1.63;1.52;;;11.90;99.90;;;;;;4996453;28;20040;-89
2024/02/22 12:16:49;;;;;;;1.58;1.45;;;11.90;99.90;;;;;;4958213;28;20489;-90
2024/02/22 12:19:16;;;;;;;1.95;1.48;;;11.80;99.90;;;;;;5024331;28;20051;-90
2024/02/22 12:21:42;;;;;;;1.52;1.23;;;11.80;99.90;;;;;;4957000;28;20562;-90
2024/02/22 12:24:09;;;;;;;1.60;1.00;;;11.70;99.90;;;;;;4967646;28;20035;-91
2024/02/22 12:26:35;;;;;;;1.33;1.23;;;11.70;99.90;;;;;;5002139;28;20041;-89
2024/02/22 12:29:01;;;;;;;1.50;1.10;;;11.70;99.90;;;;;;4960879;28;21707;-90
2024/02/22 12:31:27;;;;;;;1.52;1.42;;;11.70;99.90;;;;;;5012530;28;20441;-90
2024/02/22 12:33:54;;;;;;;2.58;1.95;;;11.60;99.90;;;;;;4968344;28;20115;-90
2024/02/22 12:36:22;;;;;;;1.88;1.55;;;11.60;99.90;;;;;;4987469;28;20124;-89
2024/02/22 12:38:47;;;;;;;;;;;11.60;99.90;;;;;;4968199;28;20236;-90
2024/02/22 12:41:14;;;;;;;2.75;1.85;;;11.60;99.90;;;;;;5002426;28;19916;-90
2024/02/22 12:43:57;;;;;;;1.65;1.20;;;11.50;99.90;;;;;;4983572;28;20117;-88
2024/02/22 12:46:22;;;;;;;1.83;1.23;;;11.60;99.90;;;;;;5029821;28;20048;-90
2024/02/22 12:48:48;;;;;;;1.45;1.13;;;11.50;99.90;;;;;;4971079;28;20035;-91
2024/02/22 12:51:15;;;;;;;2.65;1.33;;;11.50;99.90;;;;;;4983766;28;20027;-91
2024/02/22 12:53:42;;;;;;;1.85;1.40;;;11.40;99.90;;;;;;4978262;28;20092;-91
2024/02/22 12:56:08;;;;;;;2.22;2.03;;;11.30;99.90;;;;;;4965372;28;20424;-91